sensor_id;sensor_type;location;lat;lon;timestamp;P1;durP1;ratioP1;P2;durP2;ratioP2
70981;SDS011;58640;51.320;9.456;2022-11-21T00:01:40;26.97;;;15.17;;
70981;SDS011;58640;51.320;9.456;2022-11-21T00:04:05;28.13;;;14.57;;
70981;SDS011;58640;51.320;9.456;2022-11-21T00:06:31;28.40;;;15.40;;
70981;SDS011;58640;51.320;9.456;2022-11-21T00:08:56;31.70;;;15.10;;
70981;SDS011;58640;51.320;9.456;2022-11-21T00:11:22;24.77;;;14.37;;
70981;SDS011;58640;51.320;9.456;2022-11-21T00:13:47;27.07;;;14.77;;
70981;SDS011;58640;51.320;9.456;2022-11-21T00:16:13;22.93;;;12.43;;
70981;SDS011;58640;51.320;9.456;2022-11-21T00:18:39;23.03;;;12.47;;
70981;SDS011;58640;51.320;9.456;2022-11-21T00:21:07;21.90;;;11.93;;
70981;SDS011;58640;51.320;9.456;2022-11-21T00:23:35;21.50;;;11.87;;
70981;SDS011;58640;51.320;9.456;2022-11-21T00:26:04;20.90;;;12.13;;
70981;SDS011;58640;51.320;9.456;2022-11-21T00:28:30;21.57;;;11.90;;
70981;SDS011;58640;51.320;9.456;2022-11-21T00:30:56;21.73;;;12.27;;
70981;SDS011;58640;51.320;9.456;2022-11-21T00:33:21;19.37;;;11.80;;
70981;SDS011;58640;51.320;9.456;2022-11-21T00:35:47;20.88;;;11.52;;
70981;SDS011;58640;51.320;9.456;2022-11-21T00:38:13;19.20;;;11.13;;
70981;SDS011;58640;51.320;9.456;2022-11-21T00:40:39;19.40;;;11.53;;
70981;SDS011;58640;51.320;9.456;2022-11-21T00:43:06;17.43;;;10.07;;
70981;SDS011;58640;51.320;9.456;2022-11-21T00:45:31;19.93;;;10.20;;
70981;SDS011;58640;51.320;9.456;2022-11-21T00:47:56;18.27;;;9.80;;
70981;SDS011;58640;51.320;9.456;2022-11-21T00:50:22;19.37;;;9.97;;
70981;SDS011;58640;51.320;9.456;2022-11-21T00:52:47;16.17;;;9.80;;
70981;SDS011;58640;51.320;9.456;2022-11-21T00:55:12;13.87;;;8.30;;
70981;SDS011;58640;51.320;9.456;2022-11-21T00:57:37;16.63;;;9.23;;
70981;SDS011;58640;51.320;9.456;2022-11-21T01:00:03;14.27;;;8.57;;
70981;SDS011;58640;51.320;9.456;2022-11-21T01:02:30;14.03;;;8.27;;
70981;SDS011;58640;51.320;9.456;2022-11-21T01:04:56;13.60;;;8.47;;
70981;SDS011;58640;51.320;9.456;2022-11-21T01:07:21;16.80;;;9.10;;
70981;SDS011;58640;51.320;9.456;2022-11-21T01:09:46;15.77;;;9.07;;
70981;SDS011;58640;51.320;9.456;2022-11-21T01:12:12;14.20;;;8.20;;
70981;SDS011;58640;51.320;9.456;2022-11-21T01:14:37;16.27;;;9.30;;
70981;SDS011;58640;51.320;9.456;2022-11-21T01:17:03;14.40;;;9.20;;
70981;SDS011;58640;51.320;9.456;2022-11-21T01:19:28;18.60;;;9.10;;
70981;SDS011;58640;51.320;9.456;2022-11-21T01:21:53;16.53;;;9.93;;
70981;SDS011;58640;51.320;9.456;2022-11-21T01:24:18;14.93;;;8.88;;
70981;SDS011;58640;51.320;9.456;2022-11-21T01:26:44;13.53;;;7.90;;
70981;SDS011;58640;51.320;9.456;2022-11-21T01:29:09;12.00;;;7.50;;
70981;SDS011;58640;51.320;9.456;2022-11-21T01:31:34;11.77;;;7.43;;
70981;SDS011;58640;51.320;9.456;2022-11-21T01:34:00;11.03;;;7.80;;
70981;SDS011;58640;51.320;9.456;2022-11-21T01:36:29;12.10;;;8.17;;
70981;SDS011;58640;51.320;9.456;2022-11-21T01:38:57;13.67;;;9.00;;
70981;SDS011;58640;51.320;9.456;2022-11-21T01:41:25;12.37;;;7.83;;
70981;SDS011;58640;51.320;9.456;2022-11-21T01:43:55;11.37;;;7.37;;
70981;SDS011;58640;51.320;9.456;2022-11-21T01:46:20;12.80;;;8.23;;
70981;SDS011;58640;51.320;9.456;2022-11-21T01:48:54;9.47;;;6.90;;
70981;SDS011;58640;51.320;9.456;2022-11-21T02:03:01;9.20;;;6.23;;
70981;SDS011;58640;51.320;9.456;2022-11-21T02:05:34;7.30;;;4.97;;
70981;SDS011;58640;51.320;9.456;2022-11-21T02:08:02;7.57;;;5.20;;
70981;SDS011;58640;51.320;9.456;2022-11-21T02:10:32;5.27;;;4.17;;
70981;SDS011;58640;51.320;9.456;2022-11-21T02:13:00;6.77;;;4.87;;
70981;SDS011;58640;51.320;9.456;2022-11-21T02:15:26;5.50;;;4.63;;
70981;SDS011;58640;51.320;9.456;2022-11-21T02:17:53;5.57;;;4.00;;
70981;SDS011;58640;51.320;9.456;2022-11-21T02:20:19;5.33;;;4.30;;
70981;SDS011;58640;51.320;9.456;2022-11-21T02:23:02;7.87;;;5.67;;
70981;SDS011;58640;51.320;9.456;2022-11-21T02:25:38;9.23;;;6.00;;
70981;SDS011;58640;51.320;9.456;2022-11-21T02:28:07;8.33;;;6.00;;
70981;SDS011;58640;51.320;9.456;2022-11-21T02:30:36;8.37;;;6.40;;
70981;SDS011;58640;51.320;9.456;2022-11-21T02:33:03;10.13;;;6.90;;
70981;SDS011;58640;51.320;9.456;2022-11-21T02:35:29;9.00;;;6.40;;
70981;SDS011;58640;51.320;9.456;2022-11-21T02:41:20;9.68;;;7.05;;
70981;SDS011;58640;51.320;9.456;2022-11-21T02:43:51;10.63;;;7.13;;
70981;SDS011;58640;51.320;9.456;2022-11-21T02:46:22;12.47;;;8.33;;
70981;SDS011;58640;51.320;9.456;2022-11-21T02:48:47;13.77;;;7.60;;
70981;SDS011;58640;51.320;9.456;2022-11-21T02:51:13;12.60;;;8.37;;
70981;SDS011;58640;51.320;9.456;2022-11-21T02:53:38;12.80;;;8.63;;
70981;SDS011;58640;51.320;9.456;2022-11-21T02:56:03;12.30;;;8.37;;
70981;SDS011;58640;51.320;9.456;2022-11-21T02:58:28;9.53;;;7.73;;
70981;SDS011;58640;51.320;9.456;2022-11-21T03:00:54;13.20;;;8.17;;
70981;SDS011;58640;51.320;9.456;2022-11-21T03:03:19;11.90;;;8.33;;
70981;SDS011;58640;51.320;9.456;2022-11-21T03:05:45;10.93;;;7.90;;
70981;SDS011;58640;51.320;9.456;2022-11-21T03:08:10;13.53;;;8.37;;
70981;SDS011;58640;51.320;9.456;2022-11-21T03:10:36;12.03;;;7.97;;
70981;SDS011;58640;51.320;9.456;2022-11-21T03:13:01;12.77;;;8.10;;
70981;SDS011;58640;51.320;9.456;2022-11-21T03:15:28;12.03;;;8.40;;
70981;SDS011;58640;51.320;9.456;2022-11-21T03:17:54;12.40;;;8.37;;
70981;SDS011;58640;51.320;9.456;2022-11-21T03:20:20;14.60;;;8.63;;
70981;SDS011;58640;51.320;9.456;2022-11-21T03:22:46;11.33;;;7.87;;
70981;SDS011;58640;51.320;9.456;2022-11-21T03:25:14;14.37;;;8.60;;
70981;SDS011;58640;51.320;9.456;2022-11-21T03:27:40;10.20;;;7.47;;
70981;SDS011;58640;51.320;9.456;2022-11-21T03:30:05;13.93;;;8.23;;
70981;SDS011;58640;51.320;9.456;2022-11-21T03:32:31;13.80;;;8.80;;
70981;SDS011;58640;51.320;9.456;2022-11-21T03:34:57;12.73;;;8.47;;
70981;SDS011;58640;51.320;9.456;2022-11-21T03:37:22;14.03;;;9.07;;
70981;SDS011;58640;51.320;9.456;2022-11-21T03:39:47;14.93;;;9.37;;
70981;SDS011;58640;51.320;9.456;2022-11-21T03:42:12;14.23;;;8.70;;
70981;SDS011;58640;51.320;9.456;2022-11-21T03:44:41;16.03;;;9.87;;
70981;SDS011;58640;51.320;9.456;2022-11-21T03:47:06;14.27;;;9.77;;
70981;SDS011;58640;51.320;9.456;2022-11-21T03:49:31;13.90;;;9.60;;
70981;SDS011;58640;51.320;9.456;2022-11-21T03:51:57;15.33;;;9.60;;
70981;SDS011;58640;51.320;9.456;2022-11-21T03:54:22;15.10;;;9.77;;
70981;SDS011;58640;51.320;9.456;2022-11-21T03:56:47;15.47;;;9.90;;
70981;SDS011;58640;51.320;9.456;2022-11-21T03:59:13;16.00;;;10.30;;
70981;SDS011;58640;51.320;9.456;2022-11-21T04:01:38;18.27;;;11.00;;
70981;SDS011;58640;51.320;9.456;2022-11-21T04:04:03;15.50;;;10.03;;
70981;SDS011;58640;51.320;9.456;2022-11-21T04:06:29;16.80;;;9.87;;
70981;SDS011;58640;51.320;9.456;2022-11-21T04:08:55;15.40;;;10.13;;
70981;SDS011;58640;51.320;9.456;2022-11-21T04:11:21;18.50;;;11.17;;
70981;SDS011;58640;51.320;9.456;2022-11-21T04:13:47;17.73;;;10.77;;
70981;SDS011;58640;51.320;9.456;2022-11-21T04:16:12;18.07;;;11.17;;
70981;SDS011;58640;51.320;9.456;2022-11-21T04:18:38;17.40;;;10.30;;
70981;SDS011;58640;51.320;9.456;2022-11-21T04:21:04;16.20;;;10.00;;
70981;SDS011;58640;51.320;9.456;2022-11-21T04:23:31;15.73;;;9.47;;
70981;SDS011;58640;51.320;9.456;2022-11-21T04:25:56;13.27;;;8.90;;
70981;SDS011;58640;51.320;9.456;2022-11-21T04:28:22;14.60;;;9.17;;
70981;SDS011;58640;51.320;9.456;2022-11-21T04:30:47;15.53;;;9.63;;
70981;SDS011;58640;51.320;9.456;2022-11-21T04:33:14;15.40;;;10.03;;
70981;SDS011;58640;51.320;9.456;2022-11-21T04:35:44;16.63;;;9.73;;
70981;SDS011;58640;51.320;9.456;2022-11-21T04:38:11;14.47;;;9.13;;
70981;SDS011;58640;51.320;9.456;2022-11-21T04:40:37;14.90;;;8.80;;
70981;SDS011;58640;51.320;9.456;2022-11-21T04:43:03;13.60;;;8.90;;
70981;SDS011;58640;51.320;9.456;2022-11-21T04:45:28;14.03;;;8.83;;
70981;SDS011;58640;51.320;9.456;2022-11-21T04:47:54;14.23;;;8.67;;
70981;SDS011;58640;51.320;9.456;2022-11-21T04:50:19;10.17;;;7.87;;
70981;SDS011;58640;51.320;9.456;2022-11-21T04:52:51;11.73;;;8.17;;
70981;SDS011;58640;51.320;9.456;2022-11-21T04:55:19;12.97;;;8.23;;
70981;SDS011;58640;51.320;9.456;2022-11-21T04:57:45;13.90;;;7.90;;
70981;SDS011;58640;51.320;9.456;2022-11-21T05:00:11;12.67;;;8.37;;
70981;SDS011;58640;51.320;9.456;2022-11-21T05:02:38;13.23;;;8.80;;
70981;SDS011;58640;51.320;9.456;2022-11-21T05:05:03;16.07;;;9.80;;
70981;SDS011;58640;51.320;9.456;2022-11-21T05:07:29;14.85;;;9.82;;
70981;SDS011;58640;51.320;9.456;2022-11-21T05:09:54;16.17;;;9.83;;
70981;SDS011;58640;51.320;9.456;2022-11-21T05:12:19;17.93;;;10.53;;
70981;SDS011;58640;51.320;9.456;2022-11-21T05:15:03;16.17;;;10.50;;
70981;SDS011;58640;51.320;9.456;2022-11-21T05:17:29;18.90;;;11.00;;
70981;SDS011;58640;51.320;9.456;2022-11-21T05:19:54;19.10;;;11.03;;
70981;SDS011;58640;51.320;9.456;2022-11-21T05:22:20;14.50;;;9.57;;
70981;SDS011;58640;51.320;9.456;2022-11-21T05:24:45;17.47;;;10.93;;
70981;SDS011;58640;51.320;9.456;2022-11-21T05:27:10;17.73;;;10.87;;
70981;SDS011;58640;51.320;9.456;2022-11-21T05:29:35;15.93;;;11.03;;
70981;SDS011;58640;51.320;9.456;2022-11-21T05:32:01;18.40;;;11.47;;
70981;SDS011;58640;51.320;9.456;2022-11-21T05:34:26;17.73;;;10.67;;
70981;SDS011;58640;51.320;9.456;2022-11-21T05:36:52;17.97;;;10.43;;
70981;SDS011;58640;51.320;9.456;2022-11-21T05:39:22;16.43;;;9.93;;
70981;SDS011;58640;51.320;9.456;2022-11-21T05:41:48;15.80;;;10.07;;
70981;SDS011;58640;51.320;9.456;2022-11-21T05:44:13;17.00;;;10.37;;
70981;SDS011;58640;51.320;9.456;2022-11-21T05:46:38;15.23;;;10.30;;
70981;SDS011;58640;51.320;9.456;2022-11-21T05:49:04;15.10;;;9.50;;
70981;SDS011;58640;51.320;9.456;2022-11-21T05:51:29;14.43;;;8.87;;
70981;SDS011;58640;51.320;9.456;2022-11-21T05:53:55;17.10;;;10.80;;
70981;SDS011;58640;51.320;9.456;2022-11-21T05:56:20;15.37;;;10.27;;
70981;SDS011;58640;51.320;9.456;2022-11-21T05:58:45;15.83;;;9.90;;
70981;SDS011;58640;51.320;9.456;2022-11-21T06:01:12;12.47;;;8.03;;
70981;SDS011;58640;51.320;9.456;2022-11-21T06:03:39;17.27;;;9.70;;
70981;SDS011;58640;51.320;9.456;2022-11-21T06:08:35;26.55;;;14.20;;
70981;SDS011;58640;51.320;9.456;2022-11-21T06:11:03;21.07;;;11.60;;
70981;SDS011;58640;51.320;9.456;2022-11-21T06:13:29;17.23;;;10.00;;
70981;SDS011;58640;51.320;9.456;2022-11-21T06:18:32;15.00;;;9.27;;
70981;SDS011;58640;51.320;9.456;2022-11-21T06:21:06;13.82;;;9.10;;
70981;SDS011;58640;51.320;9.456;2022-11-21T06:23:38;15.00;;;8.77;;
70981;SDS011;58640;51.320;9.456;2022-11-21T06:26:04;14.70;;;9.67;;
70981;SDS011;58640;51.320;9.456;2022-11-21T06:28:34;14.43;;;9.13;;
70981;SDS011;58640;51.320;9.456;2022-11-21T06:31:01;17.23;;;10.27;;
70981;SDS011;58640;51.320;9.456;2022-11-21T06:33:40;13.70;;;9.67;;
70981;SDS011;58640;51.320;9.456;2022-11-21T06:36:10;13.47;;;9.17;;
70981;SDS011;58640;51.320;9.456;2022-11-21T06:38:36;17.63;;;10.17;;
70981;SDS011;58640;51.320;9.456;2022-11-21T06:41:05;16.90;;;11.20;;
70981;SDS011;58640;51.320;9.456;2022-11-21T06:43:34;18.07;;;11.93;;
70981;SDS011;58640;51.320;9.456;2022-11-21T06:45:59;17.23;;;10.73;;
70981;SDS011;58640;51.320;9.456;2022-11-21T06:48:27;15.80;;;9.40;;
70981;SDS011;58640;51.320;9.456;2022-11-21T06:50:52;17.43;;;10.40;;
70981;SDS011;58640;51.320;9.456;2022-11-21T06:53:18;19.27;;;10.27;;
70981;SDS011;58640;51.320;9.456;2022-11-21T06:55:43;17.10;;;10.70;;
70981;SDS011;58640;51.320;9.456;2022-11-21T06:58:08;15.30;;;9.40;;
70981;SDS011;58640;51.320;9.456;2022-11-21T07:00:34;18.03;;;10.67;;
70981;SDS011;58640;51.320;9.456;2022-11-21T07:03:00;17.03;;;10.43;;
70981;SDS011;58640;51.320;9.456;2022-11-21T07:05:26;20.52;;;14.35;;
70981;SDS011;58640;51.320;9.456;2022-11-21T07:07:58;18.50;;;12.03;;
70981;SDS011;58640;51.320;9.456;2022-11-21T07:10:25;17.93;;;11.13;;
70981;SDS011;58640;51.320;9.456;2022-11-21T07:12:50;18.30;;;11.23;;
70981;SDS011;58640;51.320;9.456;2022-11-21T07:15:34;30.77;;;10.87;;
70981;SDS011;58640;51.320;9.456;2022-11-21T07:17:59;17.30;;;10.23;;
70981;SDS011;58640;51.320;9.456;2022-11-21T07:20:25;17.57;;;10.83;;
70981;SDS011;58640;51.320;9.456;2022-11-21T07:22:54;19.13;;;10.63;;
70981;SDS011;58640;51.320;9.456;2022-11-21T07:25:19;16.20;;;10.17;;
70981;SDS011;58640;51.320;9.456;2022-11-21T07:27:45;18.20;;;10.60;;
70981;SDS011;58640;51.320;9.456;2022-11-21T07:30:20;15.37;;;9.83;;
70981;SDS011;58640;51.320;9.456;2022-11-21T07:33:00;17.30;;;10.33;;
70981;SDS011;58640;51.320;9.456;2022-11-21T07:35:27;18.23;;;10.23;;
70981;SDS011;58640;51.320;9.456;2022-11-21T07:37:52;17.27;;;10.50;;
70981;SDS011;58640;51.320;9.456;2022-11-21T07:40:18;18.80;;;10.60;;
70981;SDS011;58640;51.320;9.456;2022-11-21T07:42:44;14.17;;;8.37;;
70981;SDS011;58640;51.320;9.456;2022-11-21T07:45:10;19.53;;;10.77;;
70981;SDS011;58640;51.320;9.456;2022-11-21T07:47:36;18.40;;;11.53;;
70981;SDS011;58640;51.320;9.456;2022-11-21T07:50:01;18.80;;;10.87;;
70981;SDS011;58640;51.320;9.456;2022-11-21T07:52:26;18.70;;;10.67;;
70981;SDS011;58640;51.320;9.456;2022-11-21T07:54:54;18.20;;;11.13;;
70981;SDS011;58640;51.320;9.456;2022-11-21T07:57:19;16.40;;;10.33;;
70981;SDS011;58640;51.320;9.456;2022-11-21T07:59:45;17.63;;;10.53;;
70981;SDS011;58640;51.320;9.456;2022-11-21T08:02:20;24.63;;;11.77;;
70981;SDS011;58640;51.320;9.456;2022-11-21T08:04:49;20.57;;;12.03;;
70981;SDS011;58640;51.320;9.456;2022-11-21T08:07:15;18.73;;;10.83;;
70981;SDS011;58640;51.320;9.456;2022-11-21T08:09:42;19.07;;;10.83;;
70981;SDS011;58640;51.320;9.456;2022-11-21T08:12:08;17.77;;;11.37;;
70981;SDS011;58640;51.320;9.456;2022-11-21T08:14:34;22.10;;;11.30;;
70981;SDS011;58640;51.320;9.456;2022-11-21T08:16:59;16.70;;;11.00;;
70981;SDS011;58640;51.320;9.456;2022-11-21T08:19:24;17.07;;;10.40;;
70981;SDS011;58640;51.320;9.456;2022-11-21T08:21:50;22.20;;;11.77;;
70981;SDS011;58640;51.320;9.456;2022-11-21T08:24:15;18.20;;;11.53;;
70981;SDS011;58640;51.320;9.456;2022-11-21T08:26:41;17.90;;;10.70;;
70981;SDS011;58640;51.320;9.456;2022-11-21T08:29:08;18.43;;;11.33;;
70981;SDS011;58640;51.320;9.456;2022-11-21T08:31:35;18.67;;;11.07;;
70981;SDS011;58640;51.320;9.456;2022-11-21T08:34:01;17.93;;;11.37;;
70981;SDS011;58640;51.320;9.456;2022-11-21T08:36:26;22.63;;;12.47;;
70981;SDS011;58640;51.320;9.456;2022-11-21T08:38:52;21.70;;;12.30;;
70981;SDS011;58640;51.320;9.456;2022-11-21T08:41:17;16.80;;;10.68;;
70981;SDS011;58640;51.320;9.456;2022-11-21T08:44:01;21.83;;;11.77;;
70981;SDS011;58640;51.320;9.456;2022-11-21T08:46:26;24.37;;;12.57;;
70981;SDS011;58640;51.320;9.456;2022-11-21T08:48:54;22.40;;;12.57;;
70981;SDS011;58640;51.320;9.456;2022-11-21T08:51:20;23.00;;;12.77;;
70981;SDS011;58640;51.320;9.456;2022-11-21T08:53:46;21.97;;;12.37;;
70981;SDS011;58640;51.320;9.456;2022-11-21T08:56:11;19.73;;;12.10;;
70981;SDS011;58640;51.320;9.456;2022-11-21T08:58:37;21.23;;;11.43;;
70981;SDS011;58640;51.320;9.456;2022-11-21T09:01:03;22.77;;;13.75;;
70981;SDS011;58640;51.320;9.456;2022-11-21T09:03:28;16.03;;;11.03;;
70981;SDS011;58640;51.320;9.456;2022-11-21T09:06:00;19.10;;;12.05;;
70981;SDS011;58640;51.320;9.456;2022-11-21T09:08:25;20.88;;;12.38;;
70981;SDS011;58640;51.320;9.456;2022-11-21T09:10:51;20.50;;;11.57;;
70981;SDS011;58640;51.320;9.456;2022-11-21T09:13:16;18.83;;;11.27;;
70981;SDS011;58640;51.320;9.456;2022-11-21T09:15:42;17.40;;;11.48;;
70981;SDS011;58640;51.320;9.456;2022-11-21T09:18:26;19.10;;;11.40;;
70981;SDS011;58640;51.320;9.456;2022-11-21T09:20:51;21.05;;;12.55;;
70981;SDS011;58640;51.320;9.456;2022-11-21T09:23:16;17.17;;;11.03;;
70981;SDS011;58640;51.320;9.456;2022-11-21T09:25:42;22.90;;;13.50;;
70981;SDS011;58640;51.320;9.456;2022-11-21T09:28:09;19.58;;;11.65;;
70981;SDS011;58640;51.320;9.456;2022-11-21T09:30:35;20.50;;;12.73;;
70981;SDS011;58640;51.320;9.456;2022-11-21T09:33:02;21.92;;;12.10;;
70981;SDS011;58640;51.320;9.456;2022-11-21T09:35:29;18.80;;;11.32;;
70981;SDS011;58640;51.320;9.456;2022-11-21T09:37:54;18.20;;;12.57;;
70981;SDS011;58640;51.320;9.456;2022-11-21T09:40:20;20.03;;;11.00;;
70981;SDS011;58640;51.320;9.456;2022-11-21T09:43:02;25.20;;;14.73;;
70981;SDS011;58640;51.320;9.456;2022-11-21T09:45:49;19.88;;;12.63;;
70981;SDS011;58640;51.320;9.456;2022-11-21T09:48:27;18.50;;;11.73;;
70981;SDS011;58640;51.320;9.456;2022-11-21T09:50:58;21.38;;;13.10;;
70981;SDS011;58640;51.320;9.456;2022-11-21T09:53:28;21.40;;;12.65;;
70981;SDS011;58640;51.320;9.456;2022-11-21T09:55:58;18.23;;;12.13;;
70981;SDS011;58640;51.320;9.456;2022-11-21T10:01:03;17.48;;;10.75;;
70981;SDS011;58640;51.320;9.456;2022-11-21T10:03:30;15.97;;;10.53;;
70981;SDS011;58640;51.320;9.456;2022-11-21T10:06:19;17.50;;;10.07;;
70981;SDS011;58640;51.320;9.456;2022-11-21T10:11:56;19.38;;;11.50;;
70981;SDS011;58640;51.320;9.456;2022-11-21T10:17:56;19.98;;;11.70;;
70981;SDS011;58640;51.320;9.456;2022-11-21T10:20:54;15.63;;;10.90;;
70981;SDS011;58640;51.320;9.456;2022-11-21T10:31:07;18.45;;;10.80;;
70981;SDS011;58640;51.320;9.456;2022-11-21T10:33:36;18.47;;;11.93;;
70981;SDS011;58640;51.320;9.456;2022-11-21T10:38:57;17.00;;;11.13;;
70981;SDS011;58640;51.320;9.456;2022-11-21T10:41:38;19.13;;;12.27;;
70981;SDS011;58640;51.320;9.456;2022-11-21T10:44:19;17.00;;;10.68;;
70981;SDS011;58640;51.320;9.456;2022-11-21T10:47:51;15.23;;;10.50;;
70981;SDS011;58640;51.320;9.456;2022-11-21T10:53:02;17.35;;;11.15;;
70981;SDS011;58640;51.320;9.456;2022-11-21T10:55:57;16.20;;;10.57;;
70981;SDS011;58640;51.320;9.456;2022-11-21T10:58:32;19.77;;;11.68;;
70981;SDS011;58640;51.320;9.456;2022-11-21T11:01:00;18.08;;;11.13;;
70981;SDS011;58640;51.320;9.456;2022-11-21T11:03:25;17.83;;;11.25;;
70981;SDS011;58640;51.320;9.456;2022-11-21T11:05:56;18.52;;;11.80;;
70981;SDS011;58640;51.320;9.456;2022-11-21T11:08:22;20.50;;;11.80;;
70981;SDS011;58640;51.320;9.456;2022-11-21T11:11:11;19.40;;;10.75;;
70981;SDS011;58640;51.320;9.456;2022-11-21T11:16:36;18.08;;;11.93;;
70981;SDS011;58640;51.320;9.456;2022-11-21T11:29:26;17.98;;;12.18;;
70981;SDS011;58640;51.320;9.456;2022-11-21T11:31:58;20.23;;;12.05;;
70981;SDS011;58640;51.320;9.456;2022-11-21T11:34:26;19.85;;;11.75;;
70981;SDS011;58640;51.320;9.456;2022-11-21T11:39:35;21.42;;;11.88;;
70981;SDS011;58640;51.320;9.456;2022-11-21T11:48:03;21.45;;;12.05;;
70981;SDS011;58640;51.320;9.456;2022-11-21T11:50:37;17.08;;;11.35;;
70981;SDS011;58640;51.320;9.456;2022-11-21T11:53:11;18.30;;;11.18;;
70981;SDS011;58640;51.320;9.456;2022-11-21T11:55:59;18.40;;;12.35;;
70981;SDS011;58640;51.320;9.456;2022-11-21T11:58:31;17.80;;;11.02;;
70981;SDS011;58640;51.320;9.456;2022-11-21T12:01:18;17.02;;;11.90;;
70981;SDS011;58640;51.320;9.456;2022-11-21T12:03:55;16.83;;;11.00;;
70981;SDS011;58640;51.320;9.456;2022-11-21T12:06:30;15.55;;;9.77;;
70981;SDS011;58640;51.320;9.456;2022-11-21T12:09:04;17.98;;;11.30;;
70981;SDS011;58640;51.320;9.456;2022-11-21T12:18:20;16.23;;;11.02;;
70981;SDS011;58640;51.320;9.456;2022-11-21T12:23:48;17.25;;;10.90;;
70981;SDS011;58640;51.320;9.456;2022-11-21T12:37:03;13.23;;;9.60;;
70981;SDS011;58640;51.320;9.456;2022-11-21T12:53:54;17.95;;;9.73;;
70981;SDS011;58640;51.320;9.456;2022-11-21T12:57:09;13.57;;;8.75;;
70981;SDS011;58640;51.320;9.456;2022-11-21T12:59:51;12.80;;;8.48;;
70981;SDS011;58640;51.320;9.456;2022-11-21T13:05:31;11.88;;;8.73;;
70981;SDS011;58640;51.320;9.456;2022-11-21T13:08:15;14.95;;;9.65;;
70981;SDS011;58640;51.320;9.456;2022-11-21T13:10:46;13.80;;;9.38;;
70981;SDS011;58640;51.320;9.456;2022-11-21T13:13:55;15.45;;;9.68;;
70981;SDS011;58640;51.320;9.456;2022-11-21T13:16:29;11.90;;;8.80;;
70981;SDS011;58640;51.320;9.456;2022-11-21T13:19:23;13.70;;;9.07;;
70981;SDS011;58640;51.320;9.456;2022-11-21T13:21:54;12.50;;;9.13;;
70981;SDS011;58640;51.320;9.456;2022-11-21T13:32:39;10.07;;;7.57;;
70981;SDS011;58640;51.320;9.456;2022-11-21T13:38:13;12.50;;;7.82;;
70981;SDS011;58640;51.320;9.456;2022-11-21T13:40:33;12.40;;;8.95;;
70981;SDS011;58640;51.320;9.456;2022-11-21T13:45:38;16.42;;;9.60;;
70981;SDS011;58640;51.320;9.456;2022-11-21T13:50:53;22.38;;;12.82;;
70981;SDS011;58640;51.320;9.456;2022-11-21T13:53:36;15.95;;;10.18;;
70981;SDS011;58640;51.320;9.456;2022-11-21T14:05:12;14.27;;;8.95;;
70981;SDS011;58640;51.320;9.456;2022-11-21T14:08:10;13.90;;;9.68;;
70981;SDS011;58640;51.320;9.456;2022-11-21T14:10:38;16.80;;;9.32;;
70981;SDS011;58640;51.320;9.456;2022-11-21T14:13:03;17.25;;;10.18;;
70981;SDS011;58640;51.320;9.456;2022-11-21T14:18:19;14.07;;;9.27;;
70981;SDS011;58640;51.320;9.456;2022-11-21T14:23:22;14.73;;;9.77;;
70981;SDS011;58640;51.320;9.456;2022-11-21T14:26:02;22.90;;;12.23;;
70981;SDS011;58640;51.320;9.456;2022-11-21T14:28:30;25.40;;;15.63;;
70981;SDS011;58640;51.320;9.456;2022-11-21T14:31:07;23.20;;;14.05;;
70981;SDS011;58640;51.320;9.456;2022-11-21T14:33:35;21.52;;;14.07;;
70981;SDS011;58640;51.320;9.456;2022-11-21T14:36:05;22.02;;;14.00;;
70981;SDS011;58640;51.320;9.456;2022-11-21T14:38:41;21.63;;;13.57;;
70981;SDS011;58640;51.320;9.456;2022-11-21T14:43:59;25.23;;;14.13;;
70981;SDS011;58640;51.320;9.456;2022-11-21T14:48:51;22.40;;;13.48;;
70981;SDS011;58640;51.320;9.456;2022-11-21T14:51:18;21.20;;;13.40;;
70981;SDS011;58640;51.320;9.456;2022-11-21T14:53:46;20.52;;;13.57;;
70981;SDS011;58640;51.320;9.456;2022-11-21T14:56:23;19.92;;;11.85;;
70981;SDS011;58640;51.320;9.456;2022-11-21T14:58:54;18.83;;;12.48;;
70981;SDS011;58640;51.320;9.456;2022-11-21T15:01:26;19.98;;;12.98;;
70981;SDS011;58640;51.320;9.456;2022-11-21T15:04:00;18.95;;;12.40;;
70981;SDS011;58640;51.320;9.456;2022-11-21T15:06:27;31.75;;;19.63;;
70981;SDS011;58640;51.320;9.456;2022-11-21T15:08:57;33.15;;;18.10;;
70981;SDS011;58640;51.320;9.456;2022-11-21T15:11:37;25.40;;;14.57;;
70981;SDS011;58640;51.320;9.456;2022-11-21T15:17:01;22.80;;;13.13;;
70981;SDS011;58640;51.320;9.456;2022-11-21T15:19:30;21.20;;;13.98;;
70981;SDS011;58640;51.320;9.456;2022-11-21T15:21:59;20.65;;;13.95;;
70981;SDS011;58640;51.320;9.456;2022-11-21T15:32:33;26.67;;;16.33;;
70981;SDS011;58640;51.320;9.456;2022-11-21T15:34:58;30.30;;;17.13;;
70981;SDS011;58640;51.320;9.456;2022-11-21T15:37:24;23.52;;;14.85;;
70981;SDS011;58640;51.320;9.456;2022-11-21T15:39:51;24.58;;;14.48;;
70981;SDS011;58640;51.320;9.456;2022-11-21T15:42:27;26.30;;;15.70;;
70981;SDS011;58640;51.320;9.456;2022-11-21T15:44:59;20.77;;;12.13;;
70981;SDS011;58640;51.320;9.456;2022-11-21T15:47:26;19.90;;;12.63;;
70981;SDS011;58640;51.320;9.456;2022-11-21T15:49:52;20.85;;;11.73;;
70981;SDS011;58640;51.320;9.456;2022-11-21T15:52:18;20.67;;;12.60;;
70981;SDS011;58640;51.320;9.456;2022-11-21T15:54:44;16.20;;;11.20;;
70981;SDS011;58640;51.320;9.456;2022-11-21T15:57:09;19.23;;;12.50;;
70981;SDS011;58640;51.320;9.456;2022-11-21T15:59:34;22.60;;;12.68;;
70981;SDS011;58640;51.320;9.456;2022-11-21T16:02:00;20.58;;;13.90;;
70981;SDS011;58640;51.320;9.456;2022-11-21T16:04:25;22.77;;;13.55;;
70981;SDS011;58640;51.320;9.456;2022-11-21T16:06:51;21.75;;;13.35;;
70981;SDS011;58640;51.320;9.456;2022-11-21T16:09:16;20.05;;;13.07;;
70981;SDS011;58640;51.320;9.456;2022-11-21T16:11:42;26.27;;;16.40;;
70981;SDS011;58640;51.320;9.456;2022-11-21T16:14:07;24.10;;;14.52;;
70981;SDS011;58640;51.320;9.456;2022-11-21T16:16:37;24.95;;;14.52;;
70981;SDS011;58640;51.320;9.456;2022-11-21T16:19:04;24.15;;;14.68;;
70981;SDS011;58640;51.320;9.456;2022-11-21T16:21:30;22.30;;;13.80;;
70981;SDS011;58640;51.320;9.456;2022-11-21T16:23:55;25.15;;;15.50;;
70981;SDS011;58640;51.320;9.456;2022-11-21T16:26:21;20.23;;;13.57;;
70981;SDS011;58640;51.320;9.456;2022-11-21T16:28:52;24.52;;;14.50;;
70981;SDS011;58640;51.320;9.456;2022-11-21T16:31:18;22.23;;;14.23;;
70981;SDS011;58640;51.320;9.456;2022-11-21T16:33:45;21.23;;;13.68;;
70981;SDS011;58640;51.320;9.456;2022-11-21T16:36:11;27.20;;;14.95;;
70981;SDS011;58640;51.320;9.456;2022-11-21T16:38:36;22.10;;;13.35;;
70981;SDS011;58640;51.320;9.456;2022-11-21T16:41:02;25.10;;;13.82;;
70981;SDS011;58640;51.320;9.456;2022-11-21T16:43:30;21.88;;;13.10;;
70981;SDS011;58640;51.320;9.456;2022-11-21T16:46:05;27.40;;;14.90;;
70981;SDS011;58640;51.320;9.456;2022-11-21T16:48:31;27.58;;;15.52;;
70981;SDS011;58640;51.320;9.456;2022-11-21T16:51:18;26.38;;;15.88;;
70981;SDS011;58640;51.320;9.456;2022-11-21T16:53:43;27.90;;;16.77;;
70981;SDS011;58640;51.320;9.456;2022-11-21T16:56:09;23.88;;;15.00;;
70981;SDS011;58640;51.320;9.456;2022-11-21T16:58:36;29.23;;;16.95;;
70981;SDS011;58640;51.320;9.456;2022-11-21T17:01:12;33.10;;;21.13;;
70981;SDS011;58640;51.320;9.456;2022-11-21T17:03:43;37.63;;;23.73;;
70981;SDS011;58640;51.320;9.456;2022-11-21T17:06:11;37.75;;;22.73;;